Time,TemperatureF,DewpointF,PressureIn,WindDirection,WindDirectionDegrees,WindSpeedMPH,WindSpeedGustMPH,Humidity,HourlyPrecipIn,Conditions,Clouds,dailyrainin,SoftwareType,DateUTC
2013-02-23 00:00:00,26.4,2.2,27.17,North,0,0.0,0.0,35,0.00,NA,NA,-99.99,wxupload 3.5,2013-02-23 05:00:00,
2013-02-23 00:02:00,26.4,2.2,27.17,North,0,0.0,0.0,35,0.00,NA,NA,-99.99,wxupload 3.5,2013-02-23 05:02:00,
2013-02-23 00:04:00,26.4,2.2,27.17,North,0,0.0,0.0,35,0.00,NA,NA,-99.99,wxupload 3.5,2013-02-23 05:04:00,
2013-02-23 00:06:00,26.4,2.2,27.17,North,0,0.0,0.0,35,0.00,NA,NA,-99.99,wxupload 3.5,2013-02-23 05:06:00,
2013-02-23 00:12:00,26.4,2.2,27.17,North,0,0.0,0.0,35,0.00,NA,NA,-99.99,wxupload 3.5,2013-02-23 05:12:00,
2013-02-23 00:18:00,26.4,2.2,27.17,North,0,0.0,0.0,35,0.00,NA,NA,-99.99,wxupload 3.5,2013-02-23 05:18:00,
2013-02-23 00:24:00,26.2,2.1,27.17,North,0,0.0,0.0,35,0.00,NA,NA,-99.99,wxupload 3.5,2013-02-23 05:24:00,
2013-02-23 00:30:00,26.2,2.1,27.17,North,0,0.0,0.0,35,0.00,NA,NA,-99.99,wxupload 3.5,2013-02-23 05:30:00,
2013-02-23 00:36:00,26.2,1.4,27.17,North,0,0.0,0.0,34,0.00,NA,NA,-99.99,wxupload 3.5,2013-02-23 05:36:00,
2013-02-23 00:42:00,26.2,2.1,27.17,North,0,0.0,0.0,35,0.00,NA,NA,-99.99,wxupload 3.5,2013-02-23 05:42:00,
2013-02-23 00:48:00,26.2,2.1,27.17,North,0,0.0,0.0,35,0.00,NA,NA,-99.99,wxupload 3.5,2013-02-23 05:48:00,
2013-02-23 00:54:00,26.2,2.1,27.17,North,0,0.0,0.0,35,0.00,NA,NA,-99.99,wxupload 3.5,2013-02-23 05:54:00,
2013-02-23 01:00:00,26.4,2.2,27.17,North,0,0.0,0.0,35,0.00,NA,NA,-99.99,wxupload 3.5,2013-02-23 06:00:00,
2013-02-23 01:06:00,26.4,2.2,27.17,North,0,0.0,0.0,35,0.00,NA,NA,-99.99,wxupload 3.5,2013-02-23 06:06:00,
2013-02-23 01:12:00,26.4,2.2,27.17,North,0,0.0,0.0,35,0.00,NA,NA,-99.99,wxupload 3.5,2013-02-23 06:12:00,
2013-02-23 01:18:00,26.4,2.2,27.17,North,0,0.0,0.0,35,0.00,NA,NA,-99.99,wxupload 3.5,2013-02-23 06:18:00,
2013-02-23 01:24:00,26.4,2.2,27.17,North,0,0.0,0.0,35,0.00,NA,NA,-99.99,wxupload 3.5,2013-02-23 06:24:00,
2013-02-23 01:30:00,26.4,2.2,27.17,North,0,0.0,0.0,35,0.00,NA,NA,-99.99,wxupload 3.5,2013-02-23 06:30:00,
2013-02-23 01:36:00,26.4,2.2,27.17,North,0,0.0,0.0,35,0.00,NA,NA,-99.99,wxupload 3.5,2013-02-23 06:36:00,
2013-02-23 01:42:00,26.6,2.4,27.17,North,0,0.0,0.0,35,0.00,NA,NA,-99.99,wxupload 3.5,2013-02-23 06:42:00,
2013-02-23 01:48:00,26.6,2.4,27.17,North,0,0.0,0.0,35,0.00,NA,NA,-99.99,wxupload 3.5,2013-02-23 06:48:00,
2013-02-23 01:54:00,26.8,2.6,27.17,North,0,0.0,0.0,35,0.00,NA,NA,-99.99,wxupload 3.5,2013-02-23 06:54:00,
2013-02-23 02:00:00,27.0,2.7,27.17,North,0,0.0,0.0,35,0.00,NA,NA,-99.99,wxupload 3.5,2013-02-23 07:00:00,
2013-02-23 02:06:00,27.0,2.7,27.17,North,0,0.0,0.0,35,0.00,NA,NA,-99.99,wxupload 3.5,2013-02-23 07:06:00,
2013-02-23 02:12:00,27.0,2.7,27.17,North,0,0.0,0.0,35,0.00,NA,NA,-99.99,wxupload 3.5,2013-02-23 07:12:00,
2013-02-23 02:18:00,27.0,2.7,27.17,North,0,0.0,0.0,35,0.00,NA,NA,-99.99,wxupload 3.5,2013-02-23 07:18:00,
2013-02-23 02:24:00,27.0,2.7,27.17,North,0,0.0,0.0,35,0.00,NA,NA,-99.99,wxupload 3.5,2013-02-23 07:24:00,
2013-02-23 02:30:00,27.0,2.7,27.17,North,0,0.0,0.0,35,0.00,NA,NA,-99.99,wxupload 3.5,2013-02-23 07:30:00,
2013-02-23 02:36:00,27.0,2.7,27.17,North,0,0.0,0.0,35,0.00,NA,NA,-99.99,wxupload 3.5,2013-02-23 07:36:00,
2013-02-23 02:42:00,27.0,2.7,27.17,North,0,0.0,0.0,35,0.00,NA,NA,-99.99,wxupload 3.5,2013-02-23 07:42:00,
2013-02-23 02:48:00,27.1,2.9,27.17,North,0,0.0,0.0,35,0.00,NA,NA,-99.99,wxupload 3.5,2013-02-23 07:48:00,
2013-02-23 02:54:00,27.1,2.9,27.17,North,0,0.0,0.0,35,0.00,NA,NA,-99.99,wxupload 3.5,2013-02-23 07:54:00,
2013-02-23 03:00:00,27.3,3.1,27.17,North,0,0.0,0.0,35,0.00,NA,NA,-99.99,wxupload 3.5,2013-02-23 08:00:00,
2013-02-23 03:06:00,27.3,3.1,27.17,North,0,0.0,0.0,35,0.00,NA,NA,-99.99,wxupload 3.5,2013-02-23 08:06:00,
2013-02-23 03:12:00,27.3,3.7,27.17,North,0,0.0,0.0,36,0.00,NA,NA,-99.99,wxupload 3.5,2013-02-23 08:12:00,
2013-02-23 03:18:00,27.3,3.7,27.17,North,0,0.0,0.0,36,0.00,NA,NA,-99.99,wxupload 3.5,2013-02-23 08:18:00,
2013-02-23 03:24:00,27.5,3.8,27.17,North,0,0.0,0.0,36,0.00,NA,NA,-99.99,wxupload 3.5,2013-02-23 08:24:00,
2013-02-23 03:30:00,27.5,3.8,27.17,North,0,0.0,0.0,36,0.00,NA,NA,-99.99,wxupload 3.5,2013-02-23 08:30:00,
2013-02-23 03:36:00,27.7,4.6,27.17,North,0,0.0,0.0,37,0.00,NA,NA,-99.99,wxupload 3.5,2013-02-23 08:36:00,
2013-02-23 03:42:00,27.9,5.4,27.17,North,0,0.0,0.0,38,0.00,NA,NA,-99.99,wxupload 3.5,2013-02-23 08:42:00,
2013-02-23 03:48:00,28.2,6.3,27.17,North,0,0.0,0.0,39,0.00,NA,NA,-99.99,wxupload 3.5,2013-02-23 08:48:00,
2013-02-23 03:54:00,28.6,7.7,27.17,North,0,0.0,0.0,41,0.00,NA,NA,-99.99,wxupload 3.5,2013-02-23 08:54:00,
2013-02-23 04:00:00,29.1,8.2,27.17,North,0,0.0,0.0,41,0.00,NA,NA,-99.99,wxupload 3.5,2013-02-23 09:00:00,
2013-02-23 04:06:00,29.1,8.2,27.17,North,0,0.0,0.0,41,0.00,NA,NA,-99.99,wxupload 3.5,2013-02-23 09:06:00,
2013-02-23 04:12:00,29.5,8.5,27.17,North,0,0.0,0.0,41,0.00,NA,NA,-99.99,wxupload 3.5,2013-02-23 09:12:00,
2013-02-23 04:18:00,29.7,9.2,27.17,North,0,0.0,0.0,42,0.00,NA,NA,-99.99,wxupload 3.5,2013-02-23 09:18:00,
2013-02-23 04:24:00,29.5,9.1,27.17,North,0,0.0,0.0,42,0.00,NA,NA,-99.99,wxupload 3.5,2013-02-23 09:24:00,
2013-02-23 04:30:00,29.3,8.9,27.17,North,0,0.0,0.0,42,0.00,NA,NA,-99.99,wxupload 3.5,2013-02-23 09:30:00,
2013-02-23 04:36:00,29.5,9.1,27.17,North,0,0.0,0.0,42,0.00,NA,NA,-99.99,wxupload 3.5,2013-02-23 09:36:00,
2013-02-23 04:42:00,29.5,9.1,27.17,North,0,0.0,0.0,42,0.00,NA,NA,-99.99,wxupload 3.5,2013-02-23 09:42:00,
2013-02-23 04:48:00,29.5,9.1,27.17,North,0,0.0,0.0,42,0.00,NA,NA,-99.99,wxupload 3.5,2013-02-23 09:48:00,
2013-02-23 04:54:00,29.5,9.1,27.17,North,0,0.0,0.0,42,0.00,NA,NA,-99.99,wxupload 3.5,2013-02-23 09:54:00,
2013-02-23 05:00:00,29.5,9.6,27.17,North,0,0.0,0.0,43,0.00,NA,NA,-99.99,wxupload 3.5,2013-02-23 10:00:00,
2013-02-23 05:06:00,29.3,9.4,27.17,North,0,0.0,0.0,43,0.00,NA,NA,-99.99,wxupload 3.5,2013-02-23 10:06:00,
2013-02-23 05:12:00,29.3,9.4,27.17,North,0,0.0,0.0,43,0.00,NA,NA,-99.99,wxupload 3.5,2013-02-23 10:12:00,
2013-02-23 05:18:00,29.5,9.6,27.17,North,0,0.0,0.0,43,0.00,NA,NA,-99.99,wxupload 3.5,2013-02-23 10:18:00,
2013-02-23 05:24:00,29.5,9.6,27.17,North,0,0.0,0.0,43,0.00,NA,NA,-99.99,wxupload 3.5,2013-02-23 10:24:00,
2013-02-23 05:30:00,29.5,9.6,27.17,North,0,0.0,0.0,43,0.00,NA,NA,-99.99,wxupload 3.5,2013-02-23 10:30:00,
2013-02-23 05:36:00,29.5,9.6,27.17,North,0,0.0,0.0,43,0.00,NA,NA,-99.99,wxupload 3.5,2013-02-23 10:36:00,
2013-02-23 05:42:00,30.6,11.1,27.17,North,0,0.0,0.0,44,0.00,NA,NA,-99.99,wxupload 3.5,2013-02-23 10:42:00,
2013-02-23 05:48:00,31.1,12.1,27.17,North,0,0.0,0.0,45,0.00,NA,NA,-99.99,wxupload 3.5,2013-02-23 10:48:00,
2013-02-23 05:54:00,32.0,13.0,27.17,North,0,0.0,0.0,45,0.00,NA,NA,-99.99,wxupload 3.5,2013-02-23 10:54:00,
2013-02-23 06:00:00,32.2,13.1,27.17,North,0,0.0,0.0,45,0.00,NA,NA,-99.99,wxupload 3.5,2013-02-23 11:00:00,
2013-02-23 06:06:00,32.5,13.5,27.17,North,0,0.0,0.0,45,0.00,NA,NA,-99.99,wxupload 3.5,2013-02-23 11:06:00,
2013-02-23 06:12:00,32.5,13.5,27.17,North,0,0.0,0.0,45,0.00,NA,NA,-99.99,wxupload 3.5,2013-02-23 11:12:00,
2013-02-23 06:18:00,32.0,12.5,27.17,North,0,0.0,0.0,44,0.00,NA,NA,-99.99,wxupload 3.5,2013-02-23 11:18:00,
2013-02-23 06:24:00,31.1,11.6,27.17,North,0,0.0,0.0,44,0.00,NA,NA,-99.99,wxupload 3.5,2013-02-23 11:24:00,
2013-02-23 06:30:00,30.6,10.6,27.17,North,0,0.0,0.0,43,0.00,NA,NA,-99.99,wxupload 3.5,2013-02-23 11:30:00,
2013-02-23 06:36:00,30.4,11.0,27.17,North,0,0.0,0.0,44,0.00,NA,NA,-99.99,wxupload 3.5,2013-02-23 11:36:00,
2013-02-23 06:42:00,30.7,11.3,27.17,North,0,0.0,0.0,44,0.00,NA,NA,-99.99,wxupload 3.5,2013-02-23 11:42:00,
2013-02-23 06:48:00,30.7,11.8,27.17,North,0,0.0,0.0,45,0.00,NA,NA,-99.99,wxupload 3.5,2013-02-23 11:48:00,
2013-02-23 06:54:00,30.7,11.8,27.17,North,0,0.0,0.0,45,0.00,NA,NA,-99.99,wxupload 3.5,2013-02-23 11:54:00,
2013-02-23 07:00:00,30.9,12.0,27.17,North,0,0.0,0.0,45,0.00,NA,NA,-99.99,wxupload 3.5,2013-02-23 12:00:00,
2013-02-23 07:06:00,31.1,12.1,27.17,North,0,0.0,0.0,45,0.00,NA,NA,-99.99,wxupload 3.5,2013-02-23 12:06:00,
2013-02-23 07:12:00,31.3,12.8,27.17,North,0,0.0,0.0,46,0.00,NA,NA,-99.99,wxupload 3.5,2013-02-23 12:12:00,
2013-02-23 07:18:00,31.8,13.3,27.17,North,0,0.0,0.0,46,0.00,NA,NA,-99.99,wxupload 3.5,2013-02-23 12:18:00,
2013-02-23 07:24:00,31.8,13.3,27.17,North,0,0.0,0.0,46,0.00,NA,NA,-99.99,wxupload 3.5,2013-02-23 12:24:00,
2013-02-23 07:30:00,31.3,12.8,27.17,North,0,0.0,0.0,46,0.00,NA,NA,-99.99,wxupload 3.5,2013-02-23 12:30:00,
2013-02-23 07:36:00,30.9,12.0,27.17,North,0,0.0,0.0,45,0.00,NA,NA,-99.99,wxupload 3.5,2013-02-23 12:36:00,
2013-02-23 07:42:00,30.7,11.8,27.17,North,0,0.0,0.0,45,0.00,NA,NA,-99.99,wxupload 3.5,2013-02-23 12:42:00,
2013-02-23 07:48:00,30.4,11.5,27.17,North,0,0.0,0.0,45,0.00,NA,NA,-99.99,wxupload 3.5,2013-02-23 12:48:00,
2013-02-23 07:54:00,30.0,11.1,27.17,North,0,0.0,0.0,45,0.00,NA,NA,-99.99,wxupload 3.5,2013-02-23 12:54:00,
2013-02-23 08:00:00,30.7,12.3,27.17,North,0,0.0,0.0,46,0.00,NA,NA,-99.99,wxupload 3.5,2013-02-23 13:00:00,
2013-02-23 08:06:00,32.2,14.6,27.17,North,0,0.0,0.0,48,0.00,NA,NA,-99.99,wxupload 3.5,2013-02-23 13:06:00,
2013-02-23 08:12:00,33.1,15.9,27.17,North,0,0.0,0.0,49,0.00,NA,NA,-99.99,wxupload 3.5,2013-02-23 13:12:00,
2013-02-23 08:18:00,33.1,15.9,27.17,North,0,0.0,0.0,49,0.00,NA,NA,-99.99,wxupload 3.5,2013-02-23 13:18:00,
2013-02-23 08:24:00,33.1,15.5,27.17,North,0,0.0,0.0,48,0.00,NA,NA,-99.99,wxupload 3.5,2013-02-23 13:24:00,
2013-02-23 08:30:00,33.3,16.1,27.17,North,0,0.0,0.0,49,0.00,NA,NA,-99.99,wxupload 3.5,2013-02-23 13:30:00,
2013-02-23 08:36:00,33.4,16.3,27.17,North,0,0.0,0.0,49,0.00,NA,NA,-99.99,wxupload 3.5,2013-02-23 13:36:00,
2013-02-23 08:42:00,33.1,15.9,27.17,North,0,0.0,0.0,49,0.00,NA,NA,-99.99,wxupload 3.5,2013-02-23 13:42:00,
2013-02-23 08:48:00,33.1,15.9,27.17,North,0,0.0,0.0,49,0.00,NA,NA,-99.99,wxupload 3.5,2013-02-23 13:48:00,
2013-02-23 08:54:00,33.1,15.9,27.17,North,0,0.0,0.0,49,0.00,NA,NA,-99.99,wxupload 3.5,2013-02-23 13:54:00,
2013-02-23 09:00:00,33.1,15.9,27.17,North,0,0.0,0.0,49,0.00,NA,NA,-99.99,wxupload 3.5,2013-02-23 14:00:00,
2013-02-23 09:06:00,33.3,16.1,27.17,North,0,0.0,0.0,49,0.00,NA,NA,-99.99,wxupload 3.5,2013-02-23 14:06:00,
2013-02-23 09:12:00,33.6,16.9,27.17,North,0,0.0,0.0,50,0.00,NA,NA,-99.99,wxupload 3.5,2013-02-23 14:12:00,
2013-02-23 09:18:00,34.2,17.4,27.17,North,0,0.0,0.0,50,0.00,NA,NA,-99.99,wxupload 3.5,2013-02-23 14:18:00,
2013-02-23 09:24:00,34.5,17.7,27.17,North,0,0.0,0.0,50,0.00,NA,NA,-99.99,wxupload 3.5,2013-02-23 14:24:00,
2013-02-23 09:30:00,34.7,18.4,27.17,North,0,0.0,0.0,51,0.00,NA,NA,-99.99,wxupload 3.5,2013-02-23 14:30:00,
2013-02-23 09:36:00,35.2,18.9,27.17,North,0,0.0,0.0,51,0.00,NA,NA,-99.99,wxupload 3.5,2013-02-23 14:36:00,
2013-02-23 09:42:00,35.2,18.9,27.17,North,0,0.0,0.0,51,0.00,NA,NA,-99.99,wxupload 3.5,2013-02-23 14:42:00,
2013-02-23 09:48:00,35.6,19.2,27.17,North,0,0.0,0.0,51,0.00,NA,NA,-99.99,wxupload 3.5,2013-02-23 14:48:00,
2013-02-23 09:54:00,36.0,19.6,27.17,North,0,0.0,0.0,51,0.00,NA,NA,-99.99,wxupload 3.5,2013-02-23 14:54:00,
2013-02-23 10:00:00,36.1,19.7,27.17,North,0,0.0,0.0,51,0.00,NA,NA,-99.99,wxupload 3.5,2013-02-23 15:00:00,
2013-02-23 10:06:00,36.3,19.9,27.17,North,0,0.0,0.0,51,0.00,NA,NA,-99.99,wxupload 3.5,2013-02-23 15:06:00,
2013-02-23 10:12:00,36.9,20.9,27.17,North,0,0.0,0.0,52,0.00,NA,NA,-99.99,wxupload 3.5,2013-02-23 15:12:00,
2013-02-23 10:18:00,37.4,20.9,27.17,North,0,0.0,0.0,51,0.00,NA,NA,-99.99,wxupload 3.5,2013-02-23 15:18:00,
2013-02-23 10:24:00,37.8,21.7,27.17,North,0,0.0,0.0,52,0.00,NA,NA,-99.99,wxupload 3.5,2013-02-23 15:24:00,
2013-02-23 10:30:00,37.6,21.1,27.17,North,0,0.0,0.0,51,0.00,NA,NA,-99.99,wxupload 3.5,2013-02-23 15:30:00,
2013-02-23 10:36:00,37.6,21.1,27.17,North,0,0.0,0.0,51,0.00,NA,NA,-99.99,wxupload 3.5,2013-02-23 15:36:00,
2013-02-23 10:42:00,37.8,21.2,27.17,North,0,0.0,0.0,51,0.00,NA,NA,-99.99,wxupload 3.5,2013-02-23 15:42:00,
2013-02-23 10:48:00,38.1,21.6,27.17,North,0,0.0,0.0,51,0.00,NA,NA,-99.99,wxupload 3.5,2013-02-23 15:48:00,
2013-02-23 10:54:00,38.5,21.9,27.17,North,0,0.0,0.0,51,0.00,NA,NA,-99.99,wxupload 3.5,2013-02-23 15:54:00,
2013-02-23 11:00:00,38.7,22.1,27.17,North,0,0.0,0.0,51,0.00,NA,NA,-99.99,wxupload 3.5,2013-02-23 16:00:00,
2013-02-23 11:06:00,38.5,21.9,27.17,North,0,0.0,0.0,51,0.00,NA,NA,-99.99,wxupload 3.5,2013-02-23 16:06:00,
2013-02-23 11:12:00,38.7,22.1,27.17,North,0,0.0,0.0,51,0.00,NA,NA,-99.99,wxupload 3.5,2013-02-23 16:12:00,
2013-02-23 11:18:00,39.2,22.6,27.17,North,0,0.0,0.0,51,0.00,NA,NA,-99.99,wxupload 3.5,2013-02-23 16:18:00,
2013-02-23 11:24:00,39.7,23.1,27.17,North,0,0.0,0.0,51,0.00,NA,NA,-99.99,wxupload 3.5,2013-02-23 16:24:00,
2013-02-23 11:30:00,40.3,24.1,27.17,North,0,0.0,0.0,52,0.00,NA,NA,-99.99,wxupload 3.5,2013-02-23 16:30:00,
2013-02-23 11:36:00,40.6,24.4,27.17,North,0,0.0,0.0,52,0.00,NA,NA,-99.99,wxupload 3.5,2013-02-23 16:36:00,
2013-02-23 11:42:00,40.6,23.9,27.17,North,0,0.0,0.0,51,0.00,NA,NA,-99.99,wxupload 3.5,2013-02-23 16:42:00,
2013-02-23 11:48:00,40.6,23.0,27.17,North,0,0.0,0.0,49,0.00,NA,NA,-99.99,wxupload 3.5,2013-02-23 16:48:00,
2013-02-23 11:54:00,41.5,21.2,27.17,North,0,0.0,0.0,44,0.00,NA,NA,-99.99,wxupload 3.5,2013-02-23 16:54:00,
2013-02-23 12:00:00,41.0,19.6,27.17,North,0,0.0,0.0,42,0.00,NA,NA,-99.99,wxupload 3.5,2013-02-23 17:00:00,
2013-02-23 12:06:00,40.8,19.5,27.17,North,0,0.0,0.0,42,0.00,NA,NA,-99.99,wxupload 3.5,2013-02-23 17:06:00,
2013-02-23 12:12:00,41.2,18.7,27.17,North,0,0.0,0.0,40,0.00,NA,NA,-99.99,wxupload 3.5,2013-02-23 17:12:00,
2013-02-23 12:18:00,41.7,17.3,27.17,North,0,0.0,0.0,37,0.00,NA,NA,-99.99,wxupload 3.5,2013-02-23 17:18:00,
2013-02-23 12:24:00,42.1,18.3,27.17,North,0,0.0,0.0,38,0.00,NA,NA,-99.99,wxupload 3.5,2013-02-23 17:24:00,
2013-02-23 12:30:00,42.3,15.9,27.17,North,0,0.0,0.0,34,0.00,NA,NA,-99.99,wxupload 3.5,2013-02-23 17:30:00,
2013-02-23 12:36:00,42.1,14.3,27.17,North,0,0.0,0.0,32,0.00,NA,NA,-99.99,wxupload 3.5,2013-02-23 17:36:00,
2013-02-23 12:42:00,42.1,12.8,27.17,North,0,0.0,0.0,30,0.00,NA,NA,-99.99,wxupload 3.5,2013-02-23 17:42:00,
2013-02-23 12:48:00,41.7,10.9,27.17,North,0,0.0,0.0,28,0.00,NA,NA,-99.99,wxupload 3.5,2013-02-23 17:48:00,
2013-02-23 12:54:00,41.7,9.2,27.17,North,0,0.0,0.0,26,0.00,NA,NA,-99.99,wxupload 3.5,2013-02-23 17:54:00,
2013-02-23 13:00:00,41.9,4.6,27.17,North,0,0.0,0.0,21,0.00,NA,NA,-99.99,wxupload 3.5,2013-02-23 18:00:00,
2013-02-23 13:06:00,42.1,4.8,27.17,North,0,0.0,0.0,21,0.00,NA,NA,-99.99,wxupload 3.5,2013-02-23 18:06:00,
2013-02-23 13:12:00,42.3,1.5,27.17,North,0,0.0,0.0,18,0.00,NA,NA,-99.99,wxupload 3.5,2013-02-23 18:12:00,
2013-02-23 13:18:00,42.4,1.7,27.17,North,0,0.0,0.0,18,0.00,NA,NA,-99.99,wxupload 3.5,2013-02-23 18:18:00,
2013-02-23 13:24:00,42.6,1.8,27.17,North,0,0.0,0.0,18,0.00,NA,NA,-99.99,wxupload 3.5,2013-02-23 18:24:00,
2013-02-23 13:30:00,42.6,1.8,27.17,North,0,0.0,0.0,18,0.00,NA,NA,-99.99,wxupload 3.5,2013-02-23 18:30:00,
2013-02-23 13:36:00,43.3,2.5,27.17,North,0,0.0,0.0,18,0.00,NA,NA,-99.99,wxupload 3.5,2013-02-23 18:36:00,
2013-02-23 13:42:00,43.7,-1.2,27.17,North,0,0.0,0.0,15,0.00,NA,NA,-99.99,wxupload 3.5,2013-02-23 18:42:00,
2013-02-23 13:48:00,43.9,-1.1,27.17,North,0,0.0,0.0,15,0.00,NA,NA,-99.99,wxupload 3.5,2013-02-23 18:48:00,
2013-02-23 13:54:00,43.9,-1.1,27.17,North,0,0.0,0.0,15,0.00,NA,NA,-99.99,wxupload 3.5,2013-02-23 18:54:00,
2013-02-23 14:00:00,43.9,-1.1,27.17,North,0,0.0,0.0,15,0.00,NA,NA,-99.99,wxupload 3.5,2013-02-23 19:00:00,
2013-02-23 14:06:00,43.9,-1.1,27.17,North,0,0.0,0.0,15,0.00,NA,NA,-99.99,wxupload 3.5,2013-02-23 19:06:00,
2013-02-23 14:12:00,43.7,-1.2,27.17,North,0,0.0,0.0,15,0.00,NA,NA,-99.99,wxupload 3.5,2013-02-23 19:12:00,
2013-02-23 14:18:00,43.9,-1.1,27.17,North,0,0.0,0.0,15,0.00,NA,NA,-99.99,wxupload 3.5,2013-02-23 19:18:00,
2013-02-23 14:24:00,44.1,-0.9,27.17,North,0,0.0,0.0,15,0.00,NA,NA,-99.99,wxupload 3.5,2013-02-23 19:24:00,
2013-02-23 14:30:00,44.1,-0.9,27.17,North,0,0.0,0.0,15,0.00,NA,NA,-99.99,wxupload 3.5,2013-02-23 19:30:00,
2013-02-23 14:36:00,44.1,-0.9,27.17,North,0,0.0,0.0,15,0.00,NA,NA,-99.99,wxupload 3.5,2013-02-23 19:36:00,
2013-02-23 14:42:00,44.2,-0.8,27.17,North,0,0.0,0.0,15,0.00,NA,NA,-99.99,wxupload 3.5,2013-02-23 19:42:00,
2013-02-23 14:48:00,44.4,-0.6,27.17,North,0,0.0,0.0,15,0.00,NA,NA,-99.99,wxupload 3.5,2013-02-23 19:48:00,
2013-02-23 14:54:00,44.2,-0.8,27.17,North,0,0.0,0.0,15,0.00,NA,NA,-99.99,wxupload 3.5,2013-02-23 19:54:00,
2013-02-23 15:00:00,44.2,-0.8,27.17,North,0,0.0,0.0,15,0.00,NA,NA,-99.99,wxupload 3.5,2013-02-23 20:00:00,
2013-02-23 15:06:00,44.2,-0.8,27.17,North,0,0.0,0.0,15,0.00,NA,NA,-99.99,wxupload 3.5,2013-02-23 20:06:00,
2013-02-23 15:12:00,44.6,-0.5,27.17,North,0,0.0,0.0,15,0.00,NA,NA,-99.99,wxupload 3.5,2013-02-23 20:12:00,
2013-02-23 15:18:00,44.6,-0.5,27.17,North,0,0.0,0.0,15,0.00,NA,NA,-99.99,wxupload 3.5,2013-02-23 20:18:00,
2013-02-23 15:24:00,44.2,-0.8,27.17,North,0,0.0,0.0,15,0.00,NA,NA,-99.99,wxupload 3.5,2013-02-23 20:24:00,
2013-02-23 15:30:00,44.1,-0.9,27.17,North,0,0.0,0.0,15,0.00,NA,NA,-99.99,wxupload 3.5,2013-02-23 20:30:00,
2013-02-23 15:36:00,43.7,-1.2,27.17,North,0,0.0,0.0,15,0.00,NA,NA,-99.99,wxupload 3.5,2013-02-23 20:36:00,
2013-02-23 15:42:00,43.5,-1.4,27.17,North,0,0.0,0.0,15,0.00,NA,NA,-99.99,wxupload 3.5,2013-02-23 20:42:00,
2013-02-23 15:48:00,43.7,-1.2,27.17,North,0,0.0,0.0,15,0.00,NA,NA,-99.99,wxupload 3.5,2013-02-23 20:48:00,
2013-02-23 15:54:00,43.5,-1.4,27.17,North,0,0.0,0.0,15,0.00,NA,NA,-99.99,wxupload 3.5,2013-02-23 20:54:00,
2013-02-23 16:00:00,43.2,2.3,27.17,North,0,0.0,0.0,18,0.00,NA,NA,-99.99,wxupload 3.5,2013-02-23 21:00:00,
2013-02-23 16:06:00,43.0,2.2,27.17,North,0,0.0,0.0,18,0.00,NA,NA,-99.99,wxupload 3.5,2013-02-23 21:06:00,
2013-02-23 16:12:00,42.8,2.0,27.17,North,0,0.0,0.0,18,0.00,NA,NA,-99.99,wxupload 3.5,2013-02-23 21:12:00,
2013-02-23 16:18:00,42.6,1.8,27.17,North,0,0.0,0.0,18,0.00,NA,NA,-99.99,wxupload 3.5,2013-02-23 21:18:00,
2013-02-23 16:24:00,42.4,1.7,27.17,North,0,0.0,0.0,18,0.00,NA,NA,-99.99,wxupload 3.5,2013-02-23 21:24:00,
2013-02-23 16:30:00,42.3,1.5,27.17,North,0,0.0,0.0,18,0.00,NA,NA,-99.99,wxupload 3.5,2013-02-23 21:30:00,
2013-02-23 16:36:00,42.1,1.4,27.17,North,0,0.0,0.0,18,0.00,NA,NA,-99.99,wxupload 3.5,2013-02-23 21:36:00,
2013-02-23 16:42:00,42.1,1.4,27.17,North,0,0.0,0.0,18,0.00,NA,NA,-99.99,wxupload 3.5,2013-02-23 21:42:00,
2013-02-23 16:48:00,41.7,4.5,27.17,North,0,0.0,0.0,21,0.00,NA,NA,-99.99,wxupload 3.5,2013-02-23 21:48:00,
2013-02-23 16:54:00,41.5,4.3,27.17,North,0,0.0,0.0,21,0.00,NA,NA,-99.99,wxupload 3.5,2013-02-23 21:54:00,
2013-02-23 17:00:00,41.2,4.0,27.17,North,0,0.0,0.0,21,0.00,NA,NA,-99.99,wxupload 3.5,2013-02-23 22:00:00,
2013-02-23 17:06:00,41.0,3.9,27.17,North,0,0.0,0.0,21,0.00,NA,NA,-99.99,wxupload 3.5,2013-02-23 22:06:00,
2013-02-23 17:12:00,41.0,3.9,27.17,North,0,0.0,0.0,21,0.00,NA,NA,-99.99,wxupload 3.5,2013-02-23 22:12:00,
2013-02-23 17:18:00,40.6,3.5,27.17,North,0,0.0,0.0,21,0.00,NA,NA,-99.99,wxupload 3.5,2013-02-23 22:18:00,
2013-02-23 17:24:00,40.3,3.2,27.17,North,0,0.0,0.0,21,0.00,NA,NA,-99.99,wxupload 3.5,2013-02-23 22:24:00,
2013-02-23 17:30:00,39.9,2.9,27.17,North,0,0.0,0.0,21,0.00,NA,NA,-99.99,wxupload 3.5,2013-02-23 22:30:00,
2013-02-23 17:36:00,39.4,2.5,27.17,North,0,0.0,0.0,21,0.00,NA,NA,-99.99,wxupload 3.5,2013-02-23 22:36:00,
2013-02-23 17:42:00,39.0,5.1,27.17,North,0,0.0,0.0,24,0.00,NA,NA,-99.99,wxupload 3.5,2013-02-23 22:42:00,
2013-02-23 17:48:00,38.7,4.8,27.17,North,0,0.0,0.0,24,0.00,NA,NA,-99.99,wxupload 3.5,2013-02-23 22:48:00,
2013-02-23 17:54:00,38.5,6.4,27.17,North,0,0.0,0.0,26,0.00,NA,NA,-99.99,wxupload 3.5,2013-02-23 22:54:00,
2013-02-23 18:00:00,38.5,8.8,27.17,North,0,0.0,0.0,29,0.00,NA,NA,-99.99,wxupload 3.5,2013-02-23 23:00:00,
2013-02-23 18:06:00,38.1,8.5,27.17,North,0,0.0,0.0,29,0.00,NA,NA,-99.99,wxupload 3.5,2013-02-23 23:06:00,
2013-02-23 18:12:00,37.9,8.4,27.17,North,0,0.0,0.0,29,0.00,NA,NA,-99.99,wxupload 3.5,2013-02-23 23:12:00,
2013-02-23 18:18:00,37.6,8.1,27.17,North,0,0.0,0.0,29,0.00,NA,NA,-99.99,wxupload 3.5,2013-02-23 23:18:00,
2013-02-23 18:24:00,37.6,8.8,27.17,North,0,0.0,0.0,30,0.00,NA,NA,-99.99,wxupload 3.5,2013-02-23 23:24:00,
2013-02-23 18:30:00,37.6,8.8,27.17,North,0,0.0,0.0,30,0.00,NA,NA,-99.99,wxupload 3.5,2013-02-23 23:30:00,
2013-02-23 18:36:00,37.4,9.4,27.17,North,0,0.0,0.0,31,0.00,NA,NA,-99.99,wxupload 3.5,2013-02-23 23:36:00,
2013-02-23 18:42:00,37.2,9.2,27.17,North,0,0.0,0.0,31,0.00,NA,NA,-99.99,wxupload 3.5,2013-02-23 23:42:00,
2013-02-23 18:48:00,37.0,9.1,27.17,North,0,0.0,0.0,31,0.00,NA,NA,-99.99,wxupload 3.5,2013-02-23 23:48:00,
2013-02-23 18:54:00,36.9,9.6,27.17,North,0,0.0,0.0,32,0.00,NA,NA,-99.99,wxupload 3.5,2013-02-23 23:54:00,
2013-02-23 19:00:00,36.9,9.6,27.17,North,0,0.0,0.0,32,0.00,NA,NA,-99.99,wxupload 3.5,2013-02-24 00:00:00,
2013-02-23 19:06:00,36.9,10.3,27.17,North,0,0.0,0.0,33,0.00,NA,NA,-99.99,wxupload 3.5,2013-02-24 00:06:00,
2013-02-23 19:12:00,36.7,10.2,27.17,North,0,0.0,0.0,33,0.00,NA,NA,-99.99,wxupload 3.5,2013-02-24 00:12:00,
2013-02-23 19:18:00,36.5,10.0,27.17,North,0,0.0,0.0,33,0.00,NA,NA,-99.99,wxupload 3.5,2013-02-24 00:18:00,
2013-02-23 19:24:00,36.9,11.0,27.17,North,0,0.0,0.0,34,0.00,NA,NA,-99.99,wxupload 3.5,2013-02-24 00:24:00,
2013-02-23 19:30:00,37.0,11.2,27.17,North,0,0.0,0.0,34,0.00,NA,NA,-99.99,wxupload 3.5,2013-02-24 00:30:00,
2013-02-23 19:36:00,37.4,11.5,27.17,North,0,0.0,0.0,34,0.00,NA,NA,-99.99,wxupload 3.5,2013-02-24 00:36:00,
2013-02-23 19:42:00,37.4,11.5,27.17,North,0,0.0,0.0,34,0.00,NA,NA,-99.99,wxupload 3.5,2013-02-24 00:42:00,
2013-02-23 19:48:00,37.4,10.8,27.17,North,0,0.0,0.0,33,0.00,NA,NA,-99.99,wxupload 3.5,2013-02-24 00:48:00,
2013-02-23 19:54:00,37.2,11.3,27.17,North,0,0.0,0.0,34,0.00,NA,NA,-99.99,wxupload 3.5,2013-02-24 00:54:00,
2013-02-23 20:00:00,37.0,10.5,27.17,North,0,0.0,0.0,33,0.00,NA,NA,-99.99,wxupload 3.5,2013-02-24 01:00:00,
2013-02-23 20:06:00,36.9,10.3,27.17,North,0,0.0,0.0,33,0.00,NA,NA,-99.99,wxupload 3.5,2013-02-24 01:06:00,
2013-02-23 20:12:00,36.9,11.0,27.17,North,0,0.0,0.0,34,0.00,NA,NA,-99.99,wxupload 3.5,2013-02-24 01:12:00,
2013-02-23 20:18:00,36.9,10.3,27.17,North,0,0.0,0.0,33,0.00,NA,NA,-99.99,wxupload 3.5,2013-02-24 01:18:00,
2013-02-23 20:24:00,36.7,10.2,27.17,North,0,0.0,0.0,33,0.00,NA,NA,-99.99,wxupload 3.5,2013-02-24 01:24:00,
2013-02-23 20:30:00,36.5,10.0,27.17,North,0,0.0,0.0,33,0.00,NA,NA,-99.99,wxupload 3.5,2013-02-24 01:30:00,
2013-02-23 20:36:00,36.3,9.8,27.17,North,0,0.0,0.0,33,0.00,NA,NA,-99.99,wxupload 3.5,2013-02-24 01:36:00,
2013-02-23 20:42:00,36.1,10.4,27.17,North,0,0.0,0.0,34,0.00,NA,NA,-99.99,wxupload 3.5,2013-02-24 01:42:00,
2013-02-23 20:48:00,36.1,10.4,27.17,North,0,0.0,0.0,34,0.00,NA,NA,-99.99,wxupload 3.5,2013-02-24 01:48:00,
2013-02-23 20:54:00,36.1,10.4,27.17,North,0,0.0,0.0,34,0.00,NA,NA,-99.99,wxupload 3.5,2013-02-24 01:54:00,
2013-02-23 21:00:00,36.1,10.4,27.17,North,0,0.0,0.0,34,0.00,NA,NA,-99.99,wxupload 3.5,2013-02-24 02:00:00,
2013-02-23 21:06:00,36.1,10.4,27.17,North,0,0.0,0.0,34,0.00,NA,NA,-99.99,wxupload 3.5,2013-02-24 02:06:00,
2013-02-23 21:12:00,36.1,10.4,27.17,North,0,0.0,0.0,34,0.00,NA,NA,-99.99,wxupload 3.5,2013-02-24 02:12:00,
2013-02-23 21:18:00,36.3,10.5,27.17,North,0,0.0,0.0,34,0.00,NA,NA,-99.99,wxupload 3.5,2013-02-24 02:18:00,
2013-02-23 21:24:00,36.1,10.4,27.17,North,0,0.0,0.0,34,0.00,NA,NA,-99.99,wxupload 3.5,2013-02-24 02:24:00,
2013-02-23 21:30:00,36.1,11.0,27.17,North,0,0.0,0.0,35,0.00,NA,NA,-99.99,wxupload 3.5,2013-02-24 02:30:00,
2013-02-23 21:36:00,36.1,11.0,27.17,North,0,0.0,0.0,35,0.00,NA,NA,-99.99,wxupload 3.5,2013-02-24 02:36:00,
2013-02-23 21:42:00,36.1,11.0,27.17,North,0,0.0,0.0,35,0.00,NA,NA,-99.99,wxupload 3.5,2013-02-24 02:42:00,
2013-02-23 21:48:00,36.1,11.0,27.17,North,0,0.0,0.0,35,0.00,NA,NA,-99.99,wxupload 3.5,2013-02-24 02:48:00,
2013-02-23 21:54:00,36.1,11.0,27.17,North,0,0.0,0.0,35,0.00,NA,NA,-99.99,wxupload 3.5,2013-02-24 02:54:00,
2013-02-23 22:00:00,36.0,10.9,27.17,North,0,0.0,0.0,35,0.00,NA,NA,-99.99,wxupload 3.5,2013-02-24 03:00:00,
2013-02-23 22:06:00,35.8,10.7,27.17,North,0,0.0,0.0,35,0.00,NA,NA,-99.99,wxupload 3.5,2013-02-24 03:06:00,
2013-02-23 22:12:00,35.8,10.7,27.17,North,0,0.0,0.0,35,0.00,NA,NA,-99.99,wxupload 3.5,2013-02-24 03:12:00,
2013-02-23 22:18:00,35.6,10.5,27.17,North,0,0.0,0.0,35,0.00,NA,NA,-99.99,wxupload 3.5,2013-02-24 03:18:00,
2013-02-23 22:24:00,35.4,11.0,27.17,North,0,0.0,0.0,36,0.00,NA,NA,-99.99,wxupload 3.5,2013-02-24 03:24:00,
2013-02-23 22:30:00,35.2,10.8,27.17,North,0,0.0,0.0,36,0.00,NA,NA,-99.99,wxupload 3.5,2013-02-24 03:30:00,
2013-02-23 22:36:00,35.1,10.7,27.17,North,0,0.0,0.0,36,0.00,NA,NA,-99.99,wxupload 3.5,2013-02-24 03:36:00,
2013-02-23 22:42:00,35.1,11.3,27.17,North,0,0.0,0.0,37,0.00,NA,NA,-99.99,wxupload 3.5,2013-02-24 03:42:00,
2013-02-23 22:48:00,34.9,11.1,27.17,North,0,0.0,0.0,37,0.00,NA,NA,-99.99,wxupload 3.5,2013-02-24 03:48:00,
2013-02-23 22:54:00,34.9,11.1,27.17,North,0,0.0,0.0,37,0.00,NA,NA,-99.99,wxupload 3.5,2013-02-24 03:54:00,
2013-02-23 23:00:00,34.9,11.1,27.17,North,0,0.0,0.0,37,0.00,NA,NA,-99.99,wxupload 3.5,2013-02-24 04:00:00,
2013-02-23 23:06:00,34.7,11.0,27.17,North,0,0.0,0.0,37,0.00,NA,NA,-99.99,wxupload 3.5,2013-02-24 04:06:00,
2013-02-23 23:12:00,34.9,11.7,27.17,North,0,0.0,0.0,38,0.00,NA,NA,-99.99,wxupload 3.5,2013-02-24 04:12:00,
2013-02-23 23:18:00,34.7,11.6,27.17,North,0,0.0,0.0,38,0.00,NA,NA,-99.99,wxupload 3.5,2013-02-24 04:18:00,
2013-02-23 23:24:00,34.7,12.2,27.17,North,0,0.0,0.0,39,0.00,NA,NA,-99.99,wxupload 3.5,2013-02-24 04:24:00,
2013-02-23 23:30:00,34.9,12.3,27.17,North,0,0.0,0.0,39,0.00,NA,NA,-99.99,wxupload 3.5,2013-02-24 04:30:00,
2013-02-23 23:36:00,35.1,13.1,27.17,North,0,0.0,0.0,40,0.00,NA,NA,-99.99,wxupload 3.5,2013-02-24 04:36:00,
2013-02-23 23:42:00,35.1,13.1,27.17,North,0,0.0,0.0,40,0.00,NA,NA,-99.99,wxupload 3.5,2013-02-24 04:42:00,
2013-02-23 23:48:00,35.1,13.1,27.17,North,0,0.0,0.0,40,0.00,NA,NA,-99.99,wxupload 3.5,2013-02-24 04:48:00,
2013-02-23 23:54:00,35.1,13.6,27.17,North,0,0.0,0.0,41,0.00,NA,NA,-99.99,wxupload 3.5,2013-02-24 04:54:00,